Flight Track Log - Related Links

Times and Time Zones

All times are in EDT time to prevent confusion due to time zone crossing. See the N575EW flight status page for this flight to view local times or setup timezone preferences in your user account.

Time Position Orientation Groundspeed Altitude Reporting Facility
EDT Latitude Longitude Course Direction KTS MPH feet Rate Location/Type
Fri 06:24:27 AM 30.3856 -88.9694 90° East 199 229 4,900  Level Houston Center
Fri 06:25:27 AM 30.3856 -88.8989 90° East 213 245 7,500 2,350 Climbing Houston Center
Fri 06:26:27 AM 30.3883 -88.8225 88° East 231 266 9,600 2,083 Climbing Houston Center
Fri 06:27:28 AM 30.3889 -88.7408 90° East 247 284 11,700 2,182 Climbing Houston Center
Fri 06:28:28 AM 30.3908 -88.6553 88° East 261 300 14,000 2,100 Climbing Houston Center
Fri 06:29:28 AM 30.3919 -88.5689 89° East 265 305 15,900 1,736 Climbing Houston Center
Fri 06:30:29 AM 30.3939 -88.4783 89° East 276 318 17,500 1,339 Climbing Houston Center
Fri 06:31:29 AM 30.3961 -88.3839 88° East 288 331 18,600 1,300 Climbing Houston Center
Fri 06:32:29 AM 30.3983 -88.2850 88° East 300 345 20,100 1,488 Climbing Houston Center
Fri 06:33:30 AM 30.3997 -88.1875 89° East 304 350 21,600 1,488 Climbing Houston Center
Fri 06:34:30 AM 30.4019 -88.0883 88° East 309 356 23,100 1,350 Climbing Houston Center
Fri 06:35:30 AM 30.4028 -87.9878 89° East 314 361 24,300 1,190 Climbing Houston Center
Fri 06:36:31 AM 30.4053 -87.8825 88° East 327 376 25,500 1,350 Climbing Houston Center
Fri 06:36:50 AM 30.4044 -87.8344 91° East 315 362 26,100 1,519 Climbing Jacksonville Center
Fri 06:37:50 AM 30.4061 -87.7358 89° East 315 362 27,500 1,250 Climbing Jacksonville Center
Fri 06:38:50 AM 30.4058 -87.6322 90° East 310 357 28,600 950 Climbing Jacksonville Center
Fri 06:39:50 AM 30.4075 -87.5286 89° East 310 357 29,400 900 Climbing Jacksonville Center
Fri 06:40:50 AM 30.4092 -87.4253 89° East 310 357 30,400 950 Climbing Jacksonville Center
Fri 06:41:50 AM 30.4111 -87.3169 89° East 321 369 31,300 900 Climbing Jacksonville Center
Fri 06:42:50 AM 30.4125 -87.2086 89° East 328 377 32,200 850 Climbing Jacksonville Center
Fri 06:43:50 AM 30.4103 -87.0953 91° East 333 383 33,000 800 Climbing Jacksonville Center
Fri 06:44:50 AM 30.4156 -86.9919 87° East 347 399 33,800 800 Climbing Jacksonville Center
Fri 06:45:50 AM 30.4133 -86.8667 91° East 352 405 34,600 750 Climbing Jacksonville Center
Fri 06:46:50 AM 30.4147 -86.7511 89° East 352 405 35,300 800 Climbing Jacksonville Center
Fri 06:47:50 AM 30.4161 -86.6333 89° East 352 405 36,200 750 Climbing Jacksonville Center
Fri 06:48:50 AM 30.4175 -86.5153 89° East 357 411 36,800 400 Climbing Jacksonville Center
Fri 06:49:50 AM 30.4147 -86.3947 91° East 367 422 37,000 100 Climbing Jacksonville Center
Fri 06:50:50 AM 30.4161 -86.2672 89° East 377 434 37,000  Level Jacksonville Center
Fri 06:51:50 AM 30.4167 -86.1611 90° East 389 448 37,000  Level Jacksonville Center
Fri 06:52:50 AM 30.4142 -86.0142 91° East 403 464 37,000  Level Jacksonville Center
Fri 06:53:50 AM 30.4153 -85.8794 89° East 413 475 37,000  Level Jacksonville Center
Fri 06:54:50 AM 30.4164 -85.7422 89° East 419 482 37,000  Level Jacksonville Center
Fri 06:55:50 AM 30.4153 -85.6025 90° East 419 482 37,000  Level Jacksonville Center
Fri 06:56:50 AM 30.4139 -85.4650 91° East 419 482 37,000  Level Jacksonville Center
Fri 06:57:50 AM 30.4125 -85.3253 91° East 419 482 37,000  Level Jacksonville Center
Fri 06:58:50 AM 30.4108 -85.1881 91° East 419 482 37,000  Level Jacksonville Center
Fri 06:59:50 AM 30.4111 -85.0508 90° East 419 482 37,000  Level Jacksonville Center
Fri 07:00:50 AM 30.4072 -84.9108 92° East 419 482 37,000  Level Jacksonville Center
Fri 07:01:50 AM 30.4072 -84.7761 90° East 419 482 37,000 -200 Level Jacksonville Center
Fri 07:02:50 AM 30.4069 -84.6411 90° East 419 482 36,600 -550 Descending Jacksonville Center
Fri 07:03:50 AM 30.4047 -84.4992 91° East 419 482 35,900 -1,050 Descending Jacksonville Center
Fri 07:04:50 AM 30.4022 -84.3594 91° East 419 482 34,500 -1,200 Descending Jacksonville Center
Fri 07:05:50 AM 30.4017 -84.2197 90° East 419 482 33,500 -950 Descending Jacksonville Center
Fri 07:06:50 AM 30.4008 -84.0728 90° East 419 482 32,600 -900 Descending Jacksonville Center
Fri 07:07:50 AM 30.4000 -83.9378 90° East 419 482 31,700 -900 Descending Jacksonville Center
Fri 07:08:50 AM 30.3969 -83.8078 92° East 414 476 30,800 -750 Descending Jacksonville Center
Fri 07:09:50 AM 30.3956 -83.6897 91° East 409 471 30,200 -1,150 Descending Jacksonville Center
Fri 07:10:50 AM 30.3922 -83.5572 92° East 409 471 28,500 -2,200 Descending Jacksonville Center
Fri 07:11:50 AM 30.3867 -83.4175 93° East 416 479 25,800 -2,650 Descending Jacksonville Center
Fri 07:12:50 AM 30.3850 -83.2778 91° East 421 484 23,200 -2,350 Descending Jacksonville Center
Fri 07:13:50 AM 30.3811 -83.1456 92° East 421 484 21,100 -2,330 Descending Jacksonville Center
Fri 07:14:33 AM 30.3750 -83.0539 94° East 386 444 19,200 -2,500 Descending Jacksonville Center
Fri 07:14:50 AM 30.3792 -83.0225 81° East 397 457 18,600 -2,000 Descending Jacksonville Center
Fri 07:15:27 AM 30.3750 -82.9575 94° East 385 443 17,400 -1,800 Descending Jacksonville Center
Fri 07:15:50 AM 30.3750 -82.8997 90° East 383 441 16,800 -2,066 Descending Jacksonville Center
Fri 07:16:28 AM 30.3750 -82.8156 90° East 370 426 15,300 -2,000 Descending Jacksonville Center
Fri 07:16:50 AM 30.3731 -82.7842 94° East 372 428 14,800 -1,970 Descending Jacksonville Center
Fri 07:17:35 AM 30.3708 -82.7000 92° East 340 391 13,100 -2,000 Descending Jacksonville Center
Fri 07:17:50 AM 30.3686 -82.6783 97° East 347 399 12,800 -1,800 Descending Jacksonville Center
Fri 07:18:35 AM 30.3664 -82.5964 92° East 316 364 11,300 -1,900 Descending Jacksonville Center
Fri 07:18:50 AM 30.3683 -82.5650 86° East 330 380 10,900 -1,574 Descending Jacksonville Center
Fri 07:19:36 AM 30.3639 -82.4931 94° East 301 346 9,700 -1,009 Descending Jacksonville Center
Fri 07:20:37 AM 30.3594 -82.3992 93° East 299 344 9,100 -298 Descending Jacksonville Center
Fri 07:21:37 AM 30.3592 -82.3075 90° East 284 327 9,100  Level Jacksonville Center
Fri 07:22:44 AM 30.3544 -82.2114 93° East 281 323 9,100 -234 Level Jacksonville Center
Fri 07:23:45 AM 30.3456 -82.1103 96° East 288 331 8,600 -992 Descending Jacksonville Center
Fri 07:24:45 AM 30.3306 -82.0311 102° East 255 293 7,100 -1,835 Descending Jacksonville Center
Fri 07:25:46 AM 30.3214 -81.9469 97° East 259 298 4,900 -1,475 Descending Jacksonville Center
Fri 07:26:47 AM 30.3147 -81.8747 96° East 217 250 4,100 -378 Descending Jacksonville Center
Fri 07:27:53 AM 30.3058 -81.8050 98° East 192 221 4,100 -142 Level Jacksonville Center
Fri 07:28:54 AM 30.2969 -81.7425 99° East 195 224 3,800 -443 Descending Jacksonville Center
Fri 07:29:55 AM 30.2858 -81.6731 100° East 214 246 3,200 -656 Descending Jacksonville Center
Fri 07:31:02 AM 30.2789 -81.6056 97° East 203 234 2,400 -850 Descending Jacksonville Center
Fri 07:32:02 AM 30.2972 -81.5550 67° East 133 153 1,400 -992 Descending Jacksonville Center
Fri 07:33:03 AM 30.3197 -81.5331 40° Northeast 103 119 400 -984 Descending Jacksonville Center
Fri 07:35:00 AM 30.3363 -81.5144 North  Level Estimated

Login

Don't have an account? Register now (free) for customized features, flight alerts, and more!